Port Lions, AK

11:14 PM AKDT on July 28, 2014 (GMT -0800)
King Salmon (PAKN) Elev 46 ft | 58.68 °N, 156.66 °W | Change Station

Current weather conditions updated 20 minutes ago

Light Rain
Light Rain Mist
54 °F
Feels Like 54 °F
N
4
Wind Variable Wind from South

Tomorrow is forecast to be Warmer than today. Morning showers.

Today
High -- | Low -- °F
--% Chance of Precip.
Yesterday
High -- | Low -- °F
Precip. -- in
5:58 AM 10:37 PM
Waxing Crescent, 5% visible
Pressure 29.93 in
Visibility 2.5 miles
Clouds Mostly Cloudy 800 ft
Overcast 1400 ft
Dew Point 54 °F
Humidity 100%
Rainfall 0.18 in
Snow Depth Not available.
UV 0 out of 12
Pollen Not available.
Air Quality Not available.
Flu Activity Not available.
METAR PAKN 290654Z 19003KT 2 1/2SM -RA BR BKN008 OVC014 12/12 A2993 RMK AO2 SLP135 P0004 T01220122

More Conditions Fewer Conditions

Pressure 29.93 in
Visibility 2.5 miles
Clouds Mostly Cloudy 800 ft
Overcast 1400 ft
Dew Point 54 °F
Humidity 100%
Rainfall 0.18 in
Snow Depth Not available.
UV 0 out of 12
Pollen Not available.
Air Quality Not available.
Flu Activity Not available.
METAR PAKN 290654Z 19003KT 2 1/2SM -RA BR BKN008 OVC014 12/12 A2993 RMK AO2 SLP135 P0004 T01220122

More Conditions Fewer Conditions

10-Day Weather Forecast

Almanac

Astronomy

Jul. 28, 2014 Rise Set
Actual Time 5:58 AM AKDT 10:37 PM AKDT
Civil Twilight 5:03 AM AKDT 11:31 PM AKDT
Nautical Twilight 3:25 AM AKDT 1:06 AM AKDT
Astronomical Twilight Sun does not rise Sun does not rise
Moon 8:28 AM AKDT (7/28) 10:39 PM AKDT (7/28)
Length of Visible Light 18h 28m
Length of Day
16h 38m
Tomorrow will be 4m 7s shorter.
Waxing Crescent, 5% of the Moon is Illuminated
Jul 29
Waxing Crescent
Aug 3
First Quarter
Aug 10
Full
Aug 17
Last Quarter
Aug 25
New

Community

WunderPhotos

Upload Photos

1,738,651 photos uploaded!

Nearby

Snow Depth

Station Depth Elevation
Port Graham 0 in 300 ft
Nuka Glacier 1 in 1250 ft
Mcneil Canyon 1 in 1320 ft
MF Bradley River 203 in 2300 ft
Cooper Lake 24 in 1200 ft

Earthquake Activity

City Distance Mag. Time & Date
No recent earthquake activity has been reported nearby.
Minimum magnitude displayed is 2.5.

Coastal Water Temperatures

Place Temperature
No Stations Reporting

Nearby Weather Stations

Station Location Temp. Dew Point Humidity Wind Precip. Elev Updated Type
Pillar Mountain, Kodiak, AK 51.6 °F 50 °F 94% NNW  at  0.0 mph - / hr 1204 ft 11:07 PM AKDT Normal

Show More Stations Show Fewer Stations